createdAt,value
2023-12-20T00:01:39.824Z,2.80
2023-12-20T00:04:07.402Z,2.67
2023-12-20T00:06:34.286Z,2.70
2023-12-20T00:09:01.076Z,2.42
2023-12-20T00:11:27.794Z,2.60
2023-12-20T00:13:54.547Z,2.47
2023-12-20T00:16:21.280Z,2.53
2023-12-20T00:18:48.154Z,2.88
2023-12-20T00:21:15.192Z,1.92
2023-12-20T00:23:41.971Z,2.50
2023-12-20T00:26:08.574Z,1.75
2023-12-20T00:28:35.350Z,2.20
2023-12-20T00:31:02.135Z,1.95
2023-12-20T00:33:28.993Z,1.95
2023-12-20T00:35:55.622Z,2.05
2023-12-20T00:38:22.428Z,2.20
2023-12-20T00:40:50.858Z,2.40
2023-12-20T00:43:17.856Z,2.60
2023-12-20T00:45:44.532Z,2.60
2023-12-20T00:48:11.562Z,2.30
2023-12-20T00:50:38.140Z,2.40
2023-12-20T00:53:05.045Z,2.97
2023-12-20T00:55:31.738Z,2.80
2023-12-20T00:58:00.588Z,2.50
2023-12-20T01:00:27.281Z,2.25
2023-12-20T01:02:53.928Z,2.50
2023-12-20T01:05:20.769Z,2.67
2023-12-20T01:07:48.000Z,2.30
2023-12-20T01:10:14.968Z,3.10
2023-12-20T01:12:41.695Z,3.17
2023-12-20T01:15:08.646Z,2.97
2023-12-20T01:17:35.437Z,3.08
2023-12-20T01:20:02.444Z,2.90
2023-12-20T01:22:29.128Z,2.97
2023-12-20T01:24:55.928Z,3.20
2023-12-20T01:27:22.776Z,3.15
2023-12-20T01:29:49.543Z,3.33
2023-12-20T01:32:16.498Z,3.42
2023-12-20T01:34:43.305Z,3.65
2023-12-20T01:37:10.102Z,3.50
2023-12-20T01:39:36.852Z,3.08
2023-12-20T01:42:03.666Z,3.30
2023-12-20T01:44:30.442Z,3.35
2023-12-20T01:46:57.593Z,3.47
2023-12-20T01:49:25.105Z,3.03
2023-12-20T01:51:52.050Z,3.25
2023-12-20T01:54:21.468Z,3.30
2023-12-20T01:56:49.897Z,3.22
2023-12-20T01:59:16.616Z,2.90
2023-12-20T02:01:43.566Z,3.53
2023-12-20T02:04:10.382Z,3.10
2023-12-20T02:06:40.960Z,2.25
2023-12-20T02:09:08.651Z,2.65
2023-12-20T02:11:37.357Z,3.00
2023-12-20T02:14:04.094Z,3.10
2023-12-20T02:16:30.929Z,2.35
2023-12-20T02:18:57.911Z,2.95
2023-12-20T02:21:42.939Z,2.20
2023-12-20T02:24:09.637Z,2.47
2023-12-20T02:26:36.645Z,2.50
2023-12-20T02:29:03.601Z,2.50
2023-12-20T02:31:30.351Z,2.40
2023-12-20T02:33:57.275Z,2.13
2023-12-20T02:36:24.086Z,2.55
2023-12-20T02:38:51.925Z,2.30
2023-12-20T02:41:19.365Z,2.30
2023-12-20T02:43:46.557Z,2.63
2023-12-20T02:46:14.902Z,2.38
2023-12-20T02:48:41.627Z,1.80
2023-12-20T02:51:08.356Z,2.08
2023-12-20T02:53:34.912Z,2.17
2023-12-20T02:56:01.613Z,2.50
2023-12-20T02:58:28.175Z,2.38
2023-12-20T03:00:55.412Z,1.83
2023-12-20T03:03:22.045Z,2.15
2023-12-20T03:05:48.851Z,2.17
2023-12-20T03:08:15.546Z,1.95
2023-12-20T03:10:42.285Z,2.50
2023-12-20T03:13:08.914Z,2.08
2023-12-20T03:15:35.730Z,1.95
2023-12-20T03:18:02.747Z,1.98
2023-12-20T03:20:29.644Z,2.03
2023-12-20T03:22:56.257Z,2.08
2023-12-20T03:25:22.907Z,1.67
2023-12-20T03:27:49.955Z,2.20
2023-12-20T03:30:16.774Z,2.15
2023-12-20T03:32:43.476Z,2.05
2023-12-20T03:35:10.398Z,2.20
2023-12-20T03:37:37.552Z,2.65
2023-12-20T03:40:04.775Z,2.08
2023-12-20T03:42:32.034Z,2.30
2023-12-20T03:44:58.662Z,2.25
2023-12-20T03:47:25.323Z,2.25
2023-12-20T03:49:51.914Z,2.75
2023-12-20T03:52:18.591Z,2.22
2023-12-20T03:54:45.389Z,2.55
2023-12-20T03:57:12.149Z,2.47
2023-12-20T03:59:39.035Z,2.97
2023-12-20T04:02:05.975Z,3.17
2023-12-20T04:04:32.691Z,2.78
2023-12-20T04:06:59.598Z,2.63
2023-12-20T04:09:26.503Z,2.50
2023-12-20T04:11:53.377Z,2.30
2023-12-20T04:14:19.925Z,2.50
2023-12-20T04:16:47.877Z,2.38
2023-12-20T04:19:15.111Z,2.13
2023-12-20T04:21:42.016Z,2.70
2023-12-20T04:24:09.457Z,2.10
2023-12-20T04:26:36.088Z,2.83
2023-12-20T04:29:03.090Z,2.92
2023-12-20T04:31:29.682Z,3.10
2023-12-20T04:33:56.382Z,3.10
2023-12-20T04:36:23.107Z,2.55
2023-12-20T04:38:51.465Z,2.47
2023-12-20T04:41:19.874Z,3.00
2023-12-20T04:43:46.651Z,2.58
2023-12-20T04:46:13.418Z,2.33
2023-12-20T04:48:40.170Z,2.75
2023-12-20T04:51:07.237Z,3.55
2023-12-20T04:53:33.974Z,2.90
2023-12-20T04:56:00.586Z,2.38
2023-12-20T04:58:27.461Z,2.20
2023-12-20T05:00:54.246Z,2.80
2023-12-20T05:03:21.100Z,2.38
2023-12-20T05:05:48.912Z,2.72
2023-12-20T05:08:15.625Z,3.00
2023-12-20T05:10:42.396Z,3.08
2023-12-20T05:13:09.245Z,2.05
2023-12-20T05:15:36.155Z,2.97
2023-12-20T05:18:02.832Z,2.10
2023-12-20T05:20:29.688Z,4.03
2023-12-20T05:22:56.508Z,3.03
2023-12-20T05:25:23.391Z,2.33
2023-12-20T05:27:50.535Z,3.47
2023-12-20T05:30:17.441Z,2.90
2023-12-20T05:32:44.250Z,2.83
2023-12-20T05:35:11.137Z,2.75
2023-12-20T05:37:37.849Z,3.00
2023-12-20T05:40:05.579Z,3.03
2023-12-20T05:42:32.274Z,3.08
2023-12-20T05:44:59.401Z,2.53
2023-12-20T05:47:26.212Z,3.28
2023-12-20T05:49:53.021Z,3.58
2023-12-20T05:52:19.894Z,2.85
2023-12-20T05:54:46.584Z,2.67
2023-12-20T05:57:13.625Z,2.80
2023-12-20T05:59:40.781Z,2.50
2023-12-20T06:02:07.790Z,3.30
2023-12-20T06:04:34.539Z,2.88
2023-12-20T06:07:01.478Z,3.90
2023-12-20T06:09:30.743Z,2.63
2023-12-20T06:11:58.589Z,2.88
2023-12-20T06:14:25.353Z,2.95
2023-12-20T06:16:52.502Z,2.90
2023-12-20T06:19:19.244Z,3.35
2023-12-20T06:21:46.252Z,2.80
2023-12-20T06:24:13.195Z,2.95
2023-12-20T06:26:39.880Z,2.90
2023-12-20T06:29:07.893Z,3.20
2023-12-20T06:31:34.774Z,2.53
2023-12-20T06:34:01.945Z,3.25
2023-12-20T06:36:28.721Z,2.70
2023-12-20T06:38:55.521Z,3.28
2023-12-20T06:41:22.447Z,2.85
2023-12-20T06:43:50.586Z,3.15
2023-12-20T06:46:18.409Z,3.22
2023-12-20T06:48:45.538Z,3.15
2023-12-20T06:51:17.253Z,2.88
2023-12-20T06:53:44.206Z,2.58
2023-12-20T06:56:14.556Z,3.97
2023-12-20T06:58:42.766Z,2.88
2023-12-20T07:01:13.870Z,2.50
2023-12-20T07:03:43.630Z,2.80
2023-12-20T07:06:10.574Z,3.05
2023-12-20T07:08:37.247Z,2.40
2023-12-20T07:11:04.394Z,2.20
2023-12-20T07:13:31.508Z,2.53
2023-12-20T07:15:58.385Z,2.63
2023-12-20T07:18:25.140Z,2.95
2023-12-20T07:20:51.909Z,2.45
2023-12-20T07:23:18.559Z,2.80
2023-12-20T07:25:45.171Z,2.33
2023-12-20T07:28:12.888Z,3.15
2023-12-20T07:30:39.620Z,3.15
2023-12-20T07:33:09.228Z,2.90
2023-12-20T07:35:35.967Z,3.35
2023-12-20T07:38:03.514Z,2.63
2023-12-20T07:40:30.165Z,2.67
2023-12-20T07:42:57.374Z,2.40
2023-12-20T07:45:24.068Z,3.38
2023-12-20T07:47:51.778Z,2.63
2023-12-20T07:50:18.480Z,3.35
2023-12-20T07:52:45.347Z,3.05
2023-12-20T07:55:12.162Z,3.30
2023-12-20T07:57:39.966Z,2.88
2023-12-20T08:00:07.232Z,2.78
2023-12-20T08:02:33.978Z,4.30
2023-12-20T08:05:00.549Z,2.88
2023-12-20T08:07:27.348Z,3.10
2023-12-20T08:09:56.169Z,2.95
2023-12-20T08:12:24.150Z,2.80
2023-12-20T08:14:50.725Z,3.50
2023-12-20T08:17:19.406Z,2.95
2023-12-20T08:19:46.229Z,3.05
2023-12-20T08:22:13.167Z,3.08
2023-12-20T08:24:40.068Z,3.30
2023-12-20T08:27:06.744Z,2.97
2023-12-20T08:29:33.574Z,3.22
2023-12-20T08:32:00.551Z,3.10
2023-12-20T08:34:27.693Z,2.67
2023-12-20T08:36:55.383Z,2.55
2023-12-20T08:39:22.226Z,2.63
2023-12-20T08:41:48.842Z,2.90
2023-12-20T08:44:15.555Z,2.63
2023-12-20T08:46:42.279Z,2.45
2023-12-20T08:49:10.372Z,2.38
2023-12-20T08:51:37.354Z,2.70
2023-12-20T08:54:08.750Z,3.10
2023-12-20T08:56:35.774Z,2.90
2023-12-20T08:59:02.521Z,2.55
2023-12-20T09:01:29.163Z,3.00
2023-12-20T09:03:56.042Z,3.00
2023-12-20T09:06:22.790Z,3.80
2023-12-20T09:08:49.523Z,2.95
2023-12-20T09:11:16.432Z,3.15
2023-12-20T09:13:43.205Z,2.78
2023-12-20T09:16:10.145Z,3.40
2023-12-20T09:18:36.815Z,3.40
2023-12-20T09:21:03.599Z,2.97
2023-12-20T09:23:30.456Z,3.08
2023-12-20T09:25:58.328Z,3.47
2023-12-20T09:28:25.137Z,2.80
2023-12-20T09:30:52.087Z,2.70
2023-12-20T09:33:19.120Z,2.83
2023-12-20T09:35:46.289Z,3.05
2023-12-20T09:38:15.117Z,4.25
2023-12-20T09:40:42.951Z,2.90
2023-12-20T09:43:16.870Z,2.85
2023-12-20T09:45:47.618Z,3.08
2023-12-20T09:48:17.452Z,3.03
2023-12-20T09:50:48.520Z,4.03
2023-12-20T09:53:20.607Z,3.20
2023-12-20T09:55:47.425Z,2.47
2023-12-20T09:58:14.195Z,3.60
2023-12-20T10:00:40.992Z,3.17
2023-12-20T10:03:08.526Z,3.25
2023-12-20T10:05:36.090Z,4.22
2023-12-20T10:08:03.560Z,3.28
2023-12-20T10:10:38.476Z,2.92
2023-12-20T10:13:13.606Z,3.30
2023-12-20T10:15:42.488Z,3.28
2023-12-20T10:18:09.814Z,3.10
2023-12-20T10:20:36.654Z,4.50
2023-12-20T10:23:03.407Z,3.28
2023-12-20T10:25:30.518Z,3.08
2023-12-20T10:28:20.186Z,3.17
2023-12-20T10:30:47.285Z,3.10
2023-12-20T10:33:14.422Z,3.63
2023-12-20T10:35:45.072Z,3.20
2023-12-20T10:38:15.194Z,2.90
2023-12-20T10:40:42.388Z,3.53
2023-12-20T10:43:10.188Z,3.08
2023-12-20T10:45:37.051Z,3.30
2023-12-20T10:48:05.714Z,3.20
2023-12-20T10:50:33.128Z,2.80
2023-12-20T10:53:00.905Z,3.42
2023-12-20T10:55:29.477Z,2.70
2023-12-20T10:58:02.375Z,2.83
2023-12-20T11:00:32.317Z,2.70
2023-12-20T11:03:03.752Z,2.78
2023-12-20T11:05:46.160Z,3.65
2023-12-20T11:08:15.173Z,3.30
2023-12-20T11:10:47.514Z,3.15
2023-12-20T11:13:23.813Z,3.50
2023-12-20T11:15:50.833Z,2.65
2023-12-20T11:18:17.599Z,3.45
2023-12-20T11:20:44.272Z,2.42
2023-12-20T11:23:11.347Z,3.45
2023-12-20T11:25:54.164Z,3.22
2023-12-20T11:28:26.342Z,3.00
2023-12-20T11:31:00.734Z,3.58
2023-12-20T11:33:31.507Z,2.83
2023-12-20T11:36:00.873Z,2.85
2023-12-20T11:38:27.645Z,2.35
2023-12-20T11:40:55.686Z,2.85
2023-12-20T11:43:41.048Z,2.92
2023-12-20T11:46:10.486Z,3.70
2023-12-20T11:48:40.279Z,3.00
2023-12-20T11:51:14.398Z,2.47
2023-12-20T11:53:43.446Z,1.92
2023-12-20T11:56:10.880Z,2.33
2023-12-20T11:58:38.062Z,1.20
2023-12-20T12:01:09.513Z,1.10
2023-12-20T12:03:36.550Z,1.02
2023-12-20T12:06:06.041Z,1.20
2023-12-20T12:08:33.373Z,1.05
2023-12-20T12:11:00.256Z,1.45
2023-12-20T12:13:28.937Z,1.00
2023-12-20T12:15:56.025Z,1.20
2023-12-20T12:18:22.949Z,1.10
2023-12-20T12:20:49.830Z,1.20
2023-12-20T12:23:25.272Z,0.95
2023-12-20T12:25:52.308Z,1.17
2023-12-20T12:28:19.183Z,1.30
2023-12-20T12:33:28.430Z,1.38
2023-12-20T12:35:56.057Z,1.60
2023-12-20T12:38:23.626Z,1.75
2023-12-20T12:40:51.212Z,1.42
2023-12-20T12:43:17.945Z,1.30
2023-12-20T12:45:44.935Z,1.50
2023-12-20T12:48:11.846Z,1.40
2023-12-20T12:50:38.608Z,1.55
2023-12-20T12:53:05.339Z,1.80
2023-12-20T12:55:32.210Z,1.20
2023-12-20T12:57:59.005Z,1.10
2023-12-20T13:00:27.249Z,1.70
2023-12-20T13:02:54.023Z,1.75
2023-12-20T13:05:21.198Z,1.48
2023-12-20T13:07:49.757Z,1.00
2023-12-20T13:10:19.813Z,1.40
2023-12-20T13:12:47.264Z,1.10
2023-12-20T13:15:14.351Z,1.52
2023-12-20T13:17:41.368Z,1.02
2023-12-20T13:20:08.808Z,1.73
2023-12-20T13:22:35.637Z,1.40
2023-12-20T13:25:04.209Z,1.40
2023-12-20T13:27:31.052Z,1.95
2023-12-20T13:29:59.352Z,1.42
2023-12-20T13:32:26.258Z,1.30
2023-12-20T13:34:53.046Z,1.27
2023-12-20T13:37:19.923Z,1.15
2023-12-20T13:39:47.272Z,1.63
2023-12-20T13:42:14.154Z,1.30
2023-12-20T13:44:41.044Z,1.63
2023-12-20T13:47:07.748Z,1.63
2023-12-20T13:49:34.538Z,1.52
2023-12-20T13:52:01.389Z,1.48
2023-12-20T13:54:28.264Z,1.63
2023-12-20T13:57:06.014Z,2.25
2023-12-20T13:59:39.232Z,1.90
2023-12-20T14:02:06.505Z,1.85
2023-12-20T14:04:41.613Z,2.13
2023-12-20T14:07:12.658Z,2.60
2023-12-20T14:09:40.552Z,1.80
2023-12-20T14:12:08.053Z,1.77
2023-12-20T14:14:34.786Z,2.45
2023-12-20T14:17:01.383Z,2.45
2023-12-20T14:19:28.551Z,2.20
2023-12-20T14:21:55.304Z,1.92
2023-12-20T14:24:21.984Z,1.88
2023-12-20T14:26:48.736Z,1.88
2023-12-20T14:29:15.324Z,2.22
2023-12-20T14:31:42.314Z,2.00
2023-12-20T14:34:09.811Z,2.33
2023-12-20T14:36:36.910Z,2.20
2023-12-20T14:39:05.519Z,2.22
2023-12-20T14:41:32.960Z,2.17
2023-12-20T14:44:01.160Z,2.28
2023-12-20T14:46:29.744Z,2.85
2023-12-20T14:48:56.589Z,2.67
2023-12-20T14:51:23.925Z,2.65
2023-12-20T14:53:50.911Z,2.58
2023-12-20T14:56:17.829Z,2.20
2023-12-20T14:58:44.564Z,2.50
2023-12-20T15:01:12.004Z,2.33
2023-12-20T15:03:41.150Z,2.63
2023-12-20T15:06:08.391Z,2.13
2023-12-20T15:08:34.994Z,2.65
2023-12-20T15:11:02.641Z,2.42
2023-12-20T15:13:29.350Z,2.33
2023-12-20T15:15:56.133Z,2.50
2023-12-20T15:18:23.001Z,2.75
2023-12-20T15:20:49.714Z,2.90
2023-12-20T15:23:17.856Z,2.45
2023-12-20T15:25:44.699Z,2.05
2023-12-20T15:28:12.200Z,3.08
2023-12-20T15:30:39.418Z,3.47
2023-12-20T15:33:07.774Z,2.30
2023-12-20T15:35:34.961Z,2.20
2023-12-20T15:38:02.578Z,2.72
2023-12-20T15:40:29.449Z,2.20
2023-12-20T15:42:56.948Z,3.10
2023-12-20T15:45:23.635Z,2.50
2023-12-20T15:47:50.910Z,2.45
2023-12-20T15:50:18.604Z,2.72
2023-12-20T15:52:45.537Z,2.28
2023-12-20T15:55:12.348Z,2.80
2023-12-20T15:57:46.241Z,2.47
2023-12-20T16:00:20.994Z,2.25
2023-12-20T16:02:47.917Z,2.28
2023-12-20T16:05:14.944Z,2.67
2023-12-20T16:07:42.036Z,3.83
2023-12-20T16:10:09.098Z,3.40
2023-12-20T16:12:36.031Z,3.35
2023-12-20T16:15:03.430Z,3.92
2023-12-20T16:17:30.244Z,2.80
2023-12-20T16:19:57.240Z,3.28
2023-12-20T16:22:24.092Z,2.80
2023-12-20T16:24:50.935Z,2.03
2023-12-20T16:27:17.766Z,2.90
2023-12-20T16:29:45.212Z,3.03
2023-12-20T16:32:12.097Z,4.05
2023-12-20T16:34:39.360Z,2.45
2023-12-20T16:37:06.926Z,2.80
2023-12-20T16:39:34.159Z,2.70
2023-12-20T16:42:01.060Z,3.08
2023-12-20T16:44:27.786Z,2.53
2023-12-20T16:46:54.704Z,2.90
2023-12-20T16:49:21.535Z,2.83
2023-12-20T16:51:48.457Z,2.60
2023-12-20T16:54:15.340Z,2.80
2023-12-20T16:56:42.120Z,3.28
2023-12-20T16:59:09.041Z,2.40
2023-12-20T17:01:36.369Z,4.55
2023-12-20T17:04:03.655Z,3.00
2023-12-20T17:06:30.452Z,2.83
2023-12-20T17:08:57.268Z,3.15
2023-12-20T17:11:24.055Z,3.20
2023-12-20T17:13:50.704Z,3.22
2023-12-20T17:16:17.684Z,3.78
2023-12-20T17:18:50.145Z,2.55
2023-12-20T17:21:17.792Z,4.38
2023-12-20T17:23:47.789Z,3.63
2023-12-20T17:26:14.709Z,3.63
2023-12-20T17:28:41.678Z,4.45
2023-12-20T17:31:09.092Z,4.55
2023-12-20T17:33:36.310Z,4.22
2023-12-20T17:36:04.044Z,4.32
2023-12-20T17:38:31.090Z,4.68
2023-12-20T17:40:57.846Z,4.88
2023-12-20T17:43:24.531Z,5.38
2023-12-20T17:45:51.380Z,6.00
2023-12-20T17:48:18.301Z,5.07
2023-12-20T17:50:45.397Z,5.10
2023-12-20T17:53:12.262Z,5.68
2023-12-20T17:55:40.038Z,5.65
2023-12-20T17:58:06.894Z,5.95
2023-12-20T18:00:37.513Z,5.95
2023-12-20T18:03:05.096Z,5.43
2023-12-20T18:05:31.848Z,5.72
2023-12-20T18:07:58.444Z,5.70
2023-12-20T18:10:25.354Z,6.57
2023-12-20T18:12:52.181Z,6.10
2023-12-20T18:15:19.504Z,6.57
2023-12-20T18:17:46.472Z,6.75
2023-12-20T18:20:15.262Z,7.40
2023-12-20T18:22:43.391Z,7.18
2023-12-20T18:25:10.573Z,6.32
2023-12-20T18:27:37.268Z,6.10
2023-12-20T18:30:15.050Z,5.18
2023-12-20T18:32:43.641Z,6.28
2023-12-20T18:35:10.662Z,6.10
2023-12-20T18:37:40.257Z,6.43
2023-12-20T18:40:08.604Z,6.78
2023-12-20T18:42:35.371Z,6.00
2023-12-20T18:45:05.403Z,6.18
2023-12-20T18:47:32.394Z,6.32
2023-12-20T18:49:59.505Z,6.00
2023-12-20T18:52:26.201Z,4.93
2023-12-20T18:54:52.893Z,5.60
2023-12-20T18:57:19.541Z,4.57
2023-12-20T18:59:46.177Z,5.63
2023-12-20T19:02:13.930Z,5.70
2023-12-20T19:04:40.881Z,4.80
2023-12-20T19:07:07.764Z,4.32
2023-12-20T19:09:34.639Z,4.35
2023-12-20T19:12:01.452Z,5.45
2023-12-20T19:14:28.088Z,4.38
2023-12-20T19:16:55.200Z,3.80
2023-12-20T19:19:22.366Z,4.28
2023-12-20T19:21:49.237Z,4.35
2023-12-20T19:24:15.976Z,4.07
2023-12-20T19:26:42.773Z,4.68
2023-12-20T19:29:09.475Z,4.22
2023-12-20T19:31:36.124Z,4.65
2023-12-20T19:34:03.037Z,5.07
2023-12-20T19:36:29.806Z,3.95
2023-12-20T19:38:56.671Z,5.05
2023-12-20T19:41:23.319Z,3.92
2023-12-20T19:43:50.045Z,3.47
2023-12-20T19:46:16.929Z,3.70
2023-12-20T19:48:44.522Z,4.70
2023-12-20T19:51:12.256Z,4.00
2023-12-20T19:53:40.884Z,3.90
2023-12-20T19:56:07.921Z,4.00
2023-12-20T19:58:34.790Z,2.90
2023-12-20T20:01:01.790Z,3.65
2023-12-20T20:03:28.537Z,3.30
2023-12-20T20:05:55.399Z,3.15
2023-12-20T20:08:22.037Z,3.83
2023-12-20T20:10:48.952Z,4.35
2023-12-20T20:13:16.382Z,3.67
2023-12-20T20:15:43.221Z,3.53
2023-12-20T20:18:11.072Z,3.38
2023-12-20T20:20:37.975Z,3.13
2023-12-20T20:23:04.704Z,2.95
2023-12-20T20:25:31.578Z,3.22
2023-12-20T20:27:58.599Z,4.00
2023-12-20T20:30:25.405Z,3.20
2023-12-20T20:32:53.001Z,3.30
2023-12-20T20:35:22.033Z,4.20
2023-12-20T20:37:50.299Z,3.60
2023-12-20T20:40:19.683Z,3.70
2023-12-20T20:42:46.953Z,3.00
2023-12-20T20:45:15.041Z,3.30
2023-12-20T20:47:43.157Z,2.92
2023-12-20T20:50:11.332Z,3.10
2023-12-20T20:52:38.573Z,3.33
2023-12-20T20:55:05.893Z,2.75
2023-12-20T20:57:32.645Z,3.53
2023-12-20T20:59:59.355Z,3.67
2023-12-20T21:02:26.261Z,2.80
2023-12-20T21:04:53.146Z,3.22
2023-12-20T21:07:20.849Z,3.40
2023-12-20T21:09:49.422Z,4.00
2023-12-20T21:12:16.193Z,3.05
2023-12-20T21:14:42.993Z,3.05
2023-12-20T21:17:09.786Z,3.85
2023-12-20T21:19:36.698Z,4.75
2023-12-20T21:22:03.987Z,2.90
2023-12-20T21:24:30.771Z,3.15
2023-12-20T21:26:57.793Z,2.95
2023-12-20T21:29:25.773Z,3.80
2023-12-20T21:31:53.003Z,3.88
2023-12-20T21:34:19.867Z,3.47
2023-12-20T21:36:46.627Z,3.00
2023-12-20T21:39:13.799Z,3.42
2023-12-20T21:41:40.450Z,3.28
2023-12-20T21:44:08.563Z,2.80
2023-12-20T21:46:35.254Z,3.20
2023-12-20T21:49:02.269Z,3.10
2023-12-20T21:51:29.098Z,2.85
2023-12-20T21:54:15.738Z,3.20
2023-12-20T21:56:43.724Z,3.25
2023-12-20T21:59:10.693Z,3.45
2023-12-20T22:01:42.832Z,3.17
2023-12-20T22:04:10.276Z,2.63
2023-12-20T22:06:37.052Z,2.90
2023-12-20T22:09:05.961Z,3.58
2023-12-20T22:11:33.614Z,3.97
2023-12-20T22:14:00.271Z,3.60
2023-12-20T22:16:28.110Z,3.85
2023-12-20T22:18:57.668Z,3.13
2023-12-20T22:21:24.615Z,3.63
2023-12-20T22:23:51.301Z,3.60
2023-12-20T22:26:18.008Z,4.38
2023-12-20T22:28:44.637Z,4.03
2023-12-20T22:31:11.439Z,3.05
2023-12-20T22:33:38.286Z,3.80
2023-12-20T22:36:05.327Z,3.78
2023-12-20T22:38:33.661Z,3.85
2023-12-20T22:41:01.121Z,3.40
2023-12-20T22:43:27.759Z,4.20
2023-12-20T22:45:55.363Z,3.63
2023-12-20T22:48:22.262Z,4.30
2023-12-20T22:50:49.169Z,4.30
2023-12-20T22:53:15.920Z,4.93
2023-12-20T22:55:43.150Z,4.13
2023-12-20T22:58:10.123Z,3.70
2023-12-20T23:00:36.953Z,3.40
2023-12-20T23:03:03.737Z,4.65
2023-12-20T23:05:30.541Z,3.63
2023-12-20T23:07:57.808Z,4.60
2023-12-20T23:10:31.244Z,4.18
2023-12-20T23:12:58.277Z,4.30
2023-12-20T23:15:25.366Z,3.60
2023-12-20T23:17:54.273Z,4.22
2023-12-20T23:20:21.134Z,3.95
2023-12-20T23:22:47.906Z,4.07
2023-12-20T23:25:16.234Z,4.60
2023-12-20T23:27:44.494Z,4.07
2023-12-20T23:30:11.699Z,5.57
2023-12-20T23:32:38.655Z,4.35
2023-12-20T23:35:13.424Z,4.72
2023-12-20T23:37:43.481Z,4.28
2023-12-20T23:40:11.103Z,4.25
2023-12-20T23:42:37.893Z,3.97
2023-12-20T23:45:05.619Z,3.88
2023-12-20T23:47:32.255Z,5.40
2023-12-20T23:49:59.288Z,4.30
2023-12-20T23:52:26.515Z,3.83
2023-12-20T23:54:53.279Z,5.45
2023-12-20T23:57:19.948Z,4.68
2023-12-20T23:59:46.761Z,3.90
